createdAt,value
2022-11-13T00:01:09.433Z,2.12
2022-11-13T00:03:37.595Z,2.07
2022-11-13T00:06:06.252Z,2.00
2022-11-13T00:08:34.500Z,1.93
2022-11-13T00:11:03.799Z,1.82
2022-11-13T00:13:32.179Z,1.84
2022-11-13T00:16:03.382Z,1.85
2022-11-13T00:18:32.539Z,1.81
2022-11-13T00:21:06.470Z,1.88
2022-11-13T00:23:35.472Z,1.92
2022-11-13T00:26:08.124Z,1.77
2022-11-13T00:28:36.564Z,1.75
2022-11-13T00:31:08.210Z,1.72
2022-11-13T00:34:05.391Z,1.77
2022-11-13T00:36:26.889Z,1.73
2022-11-13T00:38:55.573Z,1.79
2022-11-13T00:41:24.252Z,1.80
2022-11-13T00:43:52.604Z,1.79
2022-11-13T00:46:22.189Z,1.76
2022-11-13T00:48:50.543Z,1.66
2022-11-13T00:51:19.815Z,1.58
2022-11-13T00:53:47.993Z,1.62
2022-11-13T00:56:16.191Z,1.47
2022-11-13T00:58:44.288Z,1.40
2022-11-13T01:01:14.037Z,1.44
2022-11-13T01:03:44.130Z,1.38
2022-11-13T01:06:14.219Z,1.40
2022-11-13T01:08:42.370Z,1.34
2022-11-13T01:11:12.429Z,1.40
2022-11-13T01:13:40.814Z,1.27
2022-11-13T01:16:10.813Z,1.28
2022-11-13T01:18:39.040Z,1.14
2022-11-13T01:21:11.851Z,1.17
2022-11-13T01:23:40.329Z,1.19
2022-11-13T01:26:10.849Z,1.20
2022-11-13T01:28:39.207Z,1.10
2022-11-13T01:31:08.090Z,1.01
2022-11-13T01:33:36.503Z,0.99
2022-11-13T01:36:07.359Z,1.02
2022-11-13T01:38:37.529Z,0.97
2022-11-13T01:41:07.089Z,0.91
2022-11-13T01:43:37.492Z,0.84
2022-11-13T01:46:14.959Z,0.78
2022-11-13T01:48:46.058Z,0.70
2022-11-13T01:51:16.070Z,0.66
2022-11-13T01:53:47.511Z,0.70
2022-11-13T01:56:16.412Z,0.64
2022-11-13T01:58:47.168Z,0.60
2022-11-13T02:01:15.566Z,0.57
2022-11-13T02:03:44.606Z,0.54
2022-11-13T02:06:12.782Z,0.42
2022-11-13T02:08:41.248Z,0.39
2022-11-13T02:11:10.949Z,0.34
2022-11-13T02:13:39.089Z,0.33
2022-11-13T02:16:09.831Z,0.43
2022-11-13T02:18:38.793Z,0.32
2022-11-13T02:21:14.890Z,0.21
2022-11-13T02:23:47.441Z,0.09
2022-11-13T02:26:17.769Z,0.16
2022-11-13T02:28:46.351Z,0.22
2022-11-13T02:31:15.730Z,0.26
2022-11-13T02:33:43.950Z,0.21
2022-11-13T02:36:15.998Z,0.32
2022-11-13T02:39:40.278Z,0.30
2022-11-13T02:42:10.053Z,0.35
2022-11-13T02:44:38.473Z,0.35
2022-11-13T02:47:06.771Z,0.35
2022-11-13T02:49:35.134Z,0.18
2022-11-13T02:52:03.570Z,0.14
2022-11-13T02:54:31.943Z,0.13
2022-11-13T02:57:00.283Z,0.13
2022-11-13T02:59:29.935Z,0.16
2022-11-13T03:01:58.264Z,0.11
2022-11-13T03:04:38.401Z,0.03
2022-11-13T03:07:15.196Z,-0.06
2022-11-13T03:09:43.471Z,-0.03
2022-11-13T03:12:12.065Z,-0.05
2022-11-13T03:14:41.775Z,-0.03
2022-11-13T03:17:10.301Z,-0.01
2022-11-13T03:19:38.598Z,-0.05
2022-11-13T03:22:07.202Z,-0.07
2022-11-13T03:24:35.599Z,-0.18
2022-11-13T03:27:03.989Z,-0.17
2022-11-13T03:29:32.467Z,-0.18
2022-11-13T03:32:03.339Z,-0.17
2022-11-13T03:34:31.472Z,-0.06
2022-11-13T03:36:59.608Z,-0.02
2022-11-13T03:39:27.778Z,-0.21
2022-11-13T03:41:55.968Z,-0.22
2022-11-13T03:44:24.079Z,-0.23
2022-11-13T03:46:52.299Z,-0.17
2022-11-13T03:49:22.111Z,-0.19
2022-11-13T03:51:50.239Z,-0.16
2022-11-13T03:54:18.588Z,-0.15
2022-11-13T03:56:46.776Z,-0.22
2022-11-13T03:59:14.869Z,-0.22
2022-11-13T04:01:43.094Z,-0.22
2022-11-13T04:04:11.321Z,-0.21
2022-11-13T04:06:40.914Z,-0.18
2022-11-13T04:09:09.900Z,-0.11
2022-11-13T04:11:38.159Z,-0.06
2022-11-13T04:14:06.336Z,-0.23
2022-11-13T04:16:34.448Z,-0.22
2022-11-13T04:19:02.606Z,-0.32
2022-11-13T04:21:30.748Z,-0.36
2022-11-13T04:24:00.308Z,-0.25
2022-11-13T04:26:28.557Z,-0.25
2022-11-13T04:28:56.641Z,-0.18
2022-11-13T04:31:24.792Z,-0.28
2022-11-13T04:33:52.959Z,-0.39
2022-11-13T04:36:21.231Z,-0.51
2022-11-13T04:38:49.328Z,-0.47
2022-11-13T04:41:36.877Z,-0.55
2022-11-13T04:44:05.018Z,-0.60
2022-11-13T04:46:33.147Z,-0.61
2022-11-13T04:49:01.350Z,-0.61
2022-11-13T04:51:29.488Z,-0.55
2022-11-13T04:53:57.747Z,-0.60
2022-11-13T04:56:27.312Z,-0.77
2022-11-13T04:58:55.528Z,-0.76
2022-11-13T05:01:24.133Z,-0.77
2022-11-13T05:03:52.291Z,-0.82
2022-11-13T05:06:20.390Z,-0.85
2022-11-13T05:08:48.745Z,-0.90
2022-11-13T05:11:16.931Z,-0.88
2022-11-13T05:13:46.687Z,-0.84
2022-11-13T05:16:16.136Z,-0.80
2022-11-13T05:18:44.218Z,-0.80
2022-11-13T05:21:12.866Z,-0.84
2022-11-13T05:23:41.047Z,-0.79
2022-11-13T05:26:13.705Z,-0.68
2022-11-13T05:28:42.185Z,-0.78
2022-11-13T05:31:13.118Z,-0.82
2022-11-13T05:33:43.186Z,-0.78
2022-11-13T05:36:14.898Z,-0.76
2022-11-13T05:38:43.756Z,-0.90
2022-11-13T05:41:14.683Z,-0.86
2022-11-13T05:43:43.646Z,-0.96
2022-11-13T05:46:14.587Z,-0.97
2022-11-13T05:48:43.258Z,-0.91
2022-11-13T05:51:13.166Z,-0.92
2022-11-13T05:53:42.106Z,-0.91
2022-11-13T05:56:13.656Z,-0.92
2022-11-13T05:58:44.016Z,-0.98
2022-11-13T06:01:15.340Z,-1.04
2022-11-13T06:03:43.870Z,-1.05
2022-11-13T06:06:13.889Z,-1.05
2022-11-13T06:08:42.576Z,-0.99
2022-11-13T06:11:12.988Z,-1.03
2022-11-13T06:13:41.621Z,-1.12
2022-11-13T06:16:11.710Z,-1.17
2022-11-13T06:18:42.817Z,-1.09
2022-11-13T06:21:13.267Z,-1.11
2022-11-13T06:23:41.809Z,-1.13
2022-11-13T06:26:12.964Z,-1.12
2022-11-13T06:28:41.347Z,-1.08
2022-11-13T06:31:12.091Z,-1.07
2022-11-13T06:33:42.974Z,-1.09
2022-11-13T06:36:13.649Z,-0.98
2022-11-13T06:38:42.597Z,-0.96
2022-11-13T06:41:12.306Z,-0.94
2022-11-13T06:43:40.703Z,-0.92
2022-11-13T06:46:12.155Z,-0.98
2022-11-13T06:48:41.867Z,-1.11
2022-11-13T06:51:13.767Z,-1.21
2022-11-13T06:53:41.889Z,-1.18
2022-11-13T06:56:10.211Z,-1.13
2022-11-13T06:58:38.601Z,-1.19
2022-11-13T07:01:08.030Z,-1.20
2022-11-13T07:03:36.466Z,-1.08
2022-11-13T07:06:07.998Z,-1.11
2022-11-13T07:08:37.839Z,-1.00
2022-11-13T07:11:07.846Z,-1.04
2022-11-13T07:13:36.137Z,-0.89
2022-11-13T07:16:15.831Z,-0.92
2022-11-13T07:18:45.690Z,-0.89
2022-11-13T07:21:15.187Z,-0.85
2022-11-13T07:23:43.804Z,-0.80
2022-11-13T07:26:12.549Z,-0.75
2022-11-13T07:28:40.739Z,-0.69
2022-11-13T07:31:09.030Z,-0.61
2022-11-13T07:33:37.206Z,-0.55
2022-11-13T07:36:06.128Z,-0.56
2022-11-13T07:38:36.043Z,-0.52
2022-11-13T07:41:04.641Z,-0.55
2022-11-13T07:43:32.918Z,-0.53
2022-11-13T07:46:01.458Z,-0.47
2022-11-13T07:48:30.351Z,-0.39
2022-11-13T07:51:01.792Z,-0.35
2022-11-13T07:53:30.561Z,-0.33
2022-11-13T07:56:03.275Z,-0.26
2022-11-13T07:58:31.859Z,-0.18
2022-11-13T08:01:04.358Z,-0.08
2022-11-13T08:03:33.168Z,0.00
2022-11-13T08:06:02.647Z,0.13
2022-11-13T08:08:31.150Z,0.08
2022-11-13T08:10:59.548Z,0.17
2022-11-13T08:13:29.119Z,0.24
2022-11-13T08:16:00.600Z,0.43
2022-11-13T08:18:29.118Z,0.47
2022-11-13T08:20:57.749Z,0.51
2022-11-13T08:23:26.082Z,0.43
2022-11-13T08:25:54.640Z,0.52
2022-11-13T08:28:22.778Z,0.73
2022-11-13T08:30:52.839Z,0.80
2022-11-13T08:33:20.983Z,0.98
2022-11-13T08:35:56.178Z,1.13
2022-11-13T08:38:24.789Z,1.12
2022-11-13T08:40:53.078Z,1.26
2022-11-13T08:43:21.227Z,1.44
2022-11-13T08:45:49.592Z,1.64
2022-11-13T08:48:19.996Z,1.80
2022-11-13T08:50:48.161Z,1.95
2022-11-13T08:53:16.356Z,2.13
2022-11-13T08:55:44.580Z,2.36
2022-11-13T08:58:12.849Z,2.54
2022-11-13T09:00:41.079Z,2.86
2022-11-13T09:03:13.118Z,3.02
2022-11-13T09:05:42.621Z,3.17
2022-11-13T09:08:10.948Z,3.30
2022-11-13T09:10:39.049Z,3.43
2022-11-13T09:13:08.910Z,3.55
2022-11-13T09:15:40.128Z,3.77
2022-11-13T09:18:08.239Z,3.76
2022-11-13T09:20:36.639Z,3.93
2022-11-13T09:23:09.366Z,3.90
2022-11-13T09:25:38.427Z,4.02
2022-11-13T09:28:07.491Z,4.09
2022-11-13T09:30:36.838Z,4.30
2022-11-13T09:33:05.073Z,4.52
2022-11-13T09:35:36.851Z,4.64
2022-11-13T09:38:11.414Z,4.61
2022-11-13T09:40:44.194Z,4.65
2022-11-13T09:43:27.462Z,4.70
2022-11-13T09:46:00.300Z,4.80
2022-11-13T09:48:32.551Z,4.98
2022-11-13T09:51:03.648Z,5.14
2022-11-13T09:53:36.672Z,5.24
2022-11-13T09:56:14.948Z,5.27
2022-11-13T09:58:48.721Z,5.31
2022-11-13T10:01:25.459Z,5.34
2022-11-13T10:04:03.945Z,5.54
2022-11-13T10:06:41.887Z,5.62
2022-11-13T10:09:22.700Z,5.68
2022-11-13T10:11:55.841Z,5.79
2022-11-13T10:14:26.910Z,5.97
2022-11-13T10:16:58.819Z,6.04
2022-11-13T10:19:30.848Z,6.10
2022-11-13T10:22:26.400Z,6.20
2022-11-13T10:24:53.279Z,6.35
2022-11-13T10:27:21.808Z,6.52
2022-11-13T10:29:49.952Z,6.71
2022-11-13T10:32:20.219Z,6.87
2022-11-13T10:34:52.439Z,7.00
2022-11-13T10:37:41.121Z,7.06
2022-11-13T10:40:10.911Z,7.13
2022-11-13T10:42:40.649Z,7.10
2022-11-13T10:45:16.007Z,7.14
2022-11-13T10:48:03.677Z,7.31
2022-11-13T10:50:33.760Z,7.34
2022-11-13T10:53:01.963Z,7.43
2022-11-13T10:55:39.682Z,7.61
2022-11-13T10:58:14.755Z,7.70
2022-11-13T11:00:44.959Z,7.72
2022-11-13T11:03:17.669Z,7.63
2022-11-13T11:05:56.312Z,7.50
2022-11-13T11:08:28.276Z,7.65
2022-11-13T11:11:17.530Z,7.67
2022-11-13T11:13:46.014Z,7.48
2022-11-13T11:16:18.748Z,7.51
2022-11-13T11:18:53.639Z,7.44
2022-11-13T11:21:24.036Z,7.44
2022-11-13T11:23:57.572Z,7.49
2022-11-13T11:26:31.886Z,7.54
2022-11-13T11:29:08.461Z,7.58
2022-11-13T11:31:39.456Z,7.68
2022-11-13T11:34:17.039Z,7.69
2022-11-13T11:36:51.411Z,7.87
2022-11-13T11:39:29.379Z,7.95
2022-11-13T11:42:12.099Z,8.05
2022-11-13T11:44:49.917Z,8.04
2022-11-13T11:47:19.290Z,8.01
2022-11-13T11:49:47.648Z,8.07
2022-11-13T11:52:32.999Z,8.09
2022-11-13T11:55:09.630Z,8.18
2022-11-13T11:57:47.778Z,8.30
2022-11-13T12:00:18.708Z,8.36
2022-11-13T12:03:10.041Z,8.29
2022-11-13T12:05:46.661Z,8.28
2022-11-13T12:08:22.328Z,8.25
2022-11-13T12:10:56.838Z,8.32
2022-11-13T12:13:30.460Z,8.17
2022-11-13T12:16:03.696Z,8.07
2022-11-13T12:18:38.685Z,8.22
2022-11-13T12:21:23.722Z,8.38
2022-11-13T12:24:03.592Z,8.37
2022-11-13T12:26:36.956Z,8.33
2022-11-13T12:29:15.970Z,8.21
2022-11-13T12:31:53.545Z,8.27
2022-11-13T12:34:27.403Z,8.34
2022-11-13T12:36:56.338Z,8.45
2022-11-13T12:39:34.459Z,8.53
2022-11-13T12:42:06.289Z,8.66
2022-11-13T12:44:41.748Z,8.54
2022-11-13T12:47:10.378Z,8.46
2022-11-13T12:49:39.059Z,8.37
2022-11-13T12:52:20.144Z,8.43
2022-11-13T12:54:48.311Z,8.55
2022-11-13T12:57:27.259Z,8.68
2022-11-13T13:00:11.658Z,8.71
2022-11-13T13:02:52.899Z,8.60
2022-11-13T13:05:26.042Z,8.60
2022-11-13T13:08:14.139Z,8.64
2022-11-13T13:10:52.505Z,8.74
2022-11-13T13:13:26.840Z,8.63
2022-11-13T13:15:59.181Z,8.51
2022-11-13T13:18:29.956Z,8.57
2022-11-13T13:21:06.365Z,8.39
2022-11-13T13:23:36.367Z,8.40
2022-11-13T13:26:16.088Z,8.35
2022-11-13T13:28:46.128Z,8.18
2022-11-13T13:31:31.328Z,8.14
2022-11-13T13:34:09.538Z,8.08
2022-11-13T13:36:41.120Z,8.06
2022-11-13T13:39:20.879Z,7.97
2022-11-13T13:42:00.427Z,7.96
2022-11-13T13:44:40.278Z,7.82
2022-11-13T13:47:15.990Z,7.75
2022-11-13T13:49:44.797Z,7.69
2022-11-13T13:52:14.267Z,7.59
2022-11-13T13:54:43.310Z,7.46
2022-11-13T13:57:14.606Z,7.42
2022-11-13T13:59:43.557Z,7.32
2022-11-13T14:02:18.189Z,7.25
2022-11-13T14:04:47.458Z,7.18
2022-11-13T14:07:24.769Z,7.15
2022-11-13T14:10:06.380Z,7.04
2022-11-13T14:12:34.687Z,6.92
2022-11-13T14:15:06.175Z,6.86
2022-11-13T14:17:35.748Z,6.79
2022-11-13T14:20:03.907Z,6.70
2022-11-13T14:22:32.091Z,6.67
2022-11-13T14:25:01.468Z,6.66
2022-11-13T14:27:31.276Z,6.62
2022-11-13T14:30:01.436Z,6.54
2022-11-13T14:32:31.412Z,6.42
2022-11-13T14:35:03.227Z,6.34
2022-11-13T14:37:34.778Z,6.26
2022-11-13T14:40:06.224Z,6.16
2022-11-13T14:42:37.839Z,6.08
2022-11-13T14:45:17.190Z,6.06
2022-11-13T14:47:57.843Z,5.94
2022-11-13T14:50:29.236Z,5.92
2022-11-13T14:53:01.611Z,5.85
2022-11-13T14:55:31.298Z,5.77
2022-11-13T14:57:59.528Z,5.61
2022-11-13T15:00:30.378Z,5.55
2022-11-13T15:02:59.015Z,5.45
2022-11-13T15:05:29.154Z,5.30
2022-11-13T15:07:57.898Z,5.22
2022-11-13T15:10:27.996Z,5.13
2022-11-13T15:12:56.438Z,5.01
2022-11-13T15:15:27.501Z,4.90
2022-11-13T15:17:55.718Z,4.78
2022-11-13T15:20:26.598Z,4.69
2022-11-13T15:22:57.168Z,4.58
2022-11-13T15:25:26.858Z,4.43
2022-11-13T15:27:55.728Z,4.33
2022-11-13T15:30:24.068Z,4.25
2022-11-13T15:32:54.247Z,4.15
2022-11-13T15:35:22.568Z,4.05
2022-11-13T15:37:50.722Z,3.99
2022-11-13T15:40:20.469Z,3.93
2022-11-13T15:42:48.760Z,3.83
2022-11-13T15:45:17.776Z,3.75
2022-11-13T15:47:46.119Z,3.69
2022-11-13T15:50:15.598Z,3.61
2022-11-13T15:52:46.946Z,3.49
2022-11-13T15:55:22.618Z,3.42
2022-11-13T15:57:50.941Z,3.33
2022-11-13T16:00:21.545Z,3.26
2022-11-13T16:02:51.978Z,3.17
2022-11-13T16:05:20.125Z,3.12
2022-11-13T16:07:48.564Z,3.03
2022-11-13T16:10:17.638Z,2.92
2022-11-13T16:12:47.148Z,2.81
2022-11-13T16:15:17.136Z,2.74
2022-11-13T16:17:48.288Z,2.73
2022-11-13T16:20:18.319Z,2.69
2022-11-13T16:22:47.518Z,2.66
2022-11-13T16:25:17.807Z,2.63
2022-11-13T16:27:48.090Z,2.58
2022-11-13T16:30:17.454Z,2.53
2022-11-13T16:32:45.862Z,2.51
2022-11-13T16:35:15.805Z,2.45
2022-11-13T16:37:44.444Z,2.43
2022-11-13T16:40:21.798Z,2.41
2022-11-13T16:42:51.869Z,2.36
2022-11-13T16:45:20.994Z,2.31
2022-11-13T16:47:50.848Z,2.29
2022-11-13T16:50:22.190Z,2.24
2022-11-13T16:52:52.154Z,2.22
2022-11-13T16:55:20.626Z,2.21
2022-11-13T16:57:50.285Z,2.23
2022-11-13T17:00:20.641Z,2.22
2022-11-13T17:02:52.677Z,2.24
2022-11-13T17:05:22.108Z,2.22
2022-11-13T17:07:52.051Z,2.13
2022-11-13T17:10:31.324Z,2.13
2022-11-13T17:13:01.402Z,2.08
2022-11-13T17:15:29.804Z,2.02
2022-11-13T17:17:58.727Z,2.03
2022-11-13T17:20:27.141Z,2.17
2022-11-13T17:22:56.154Z,2.08
2022-11-13T17:25:26.987Z,2.01
2022-11-13T17:27:55.557Z,1.96
2022-11-13T17:30:25.339Z,1.88
2022-11-13T17:32:54.071Z,1.84
2022-11-13T17:35:22.180Z,1.81
2022-11-13T17:37:50.385Z,1.79
2022-11-13T17:40:18.646Z,1.82
2022-11-13T17:42:48.202Z,1.78
2022-11-13T17:45:16.716Z,1.83
2022-11-13T17:47:46.286Z,1.80
2022-11-13T17:50:15.253Z,1.83
2022-11-13T17:52:43.459Z,1.79
2022-11-13T17:55:14.266Z,1.73
2022-11-13T17:57:42.445Z,1.72
2022-11-13T18:00:11.933Z,1.63
2022-11-13T18:02:40.318Z,1.55
2022-11-13T18:05:10.856Z,1.62
2022-11-13T18:07:40.329Z,1.56
2022-11-13T18:10:11.089Z,1.58
2022-11-13T18:12:39.296Z,1.58
2022-11-13T18:15:08.220Z,1.64
2022-11-13T18:17:36.326Z,1.65
2022-11-13T18:20:04.745Z,1.62
2022-11-13T18:22:34.411Z,1.65
2022-11-13T18:25:03.475Z,1.69
2022-11-13T18:27:31.757Z,1.67
2022-11-13T18:29:59.848Z,1.63
2022-11-13T18:32:28.550Z,1.65
2022-11-13T18:34:56.659Z,1.63
2022-11-13T18:37:24.962Z,1.57
2022-11-13T18:39:54.647Z,1.49
2022-11-13T18:42:22.956Z,1.44
2022-11-13T18:44:51.131Z,1.55
2022-11-13T18:47:19.899Z,1.53
2022-11-13T18:49:48.152Z,1.51
2022-11-13T18:52:16.549Z,1.55
2022-11-13T18:54:44.680Z,1.62
2022-11-13T18:57:15.038Z,1.61
2022-11-13T18:59:43.200Z,1.56
2022-11-13T19:02:13.171Z,1.59
2022-11-13T19:04:41.911Z,1.50
2022-11-13T19:07:12.616Z,1.54
2022-11-13T19:09:45.237Z,1.51
2022-11-13T19:12:14.819Z,1.48
2022-11-13T19:14:44.038Z,1.53
2022-11-13T19:17:12.580Z,1.47
2022-11-13T19:19:42.400Z,1.49
2022-11-13T19:22:10.909Z,1.39
2022-11-13T19:24:39.055Z,1.38
2022-11-13T19:27:07.359Z,1.30
2022-11-13T19:29:36.898Z,1.31
2022-11-13T19:32:05.968Z,1.34
2022-11-13T19:34:34.065Z,1.33
2022-11-13T19:37:02.306Z,1.26
2022-11-13T19:39:30.441Z,1.24
2022-11-13T19:41:58.678Z,1.35
2022-11-13T19:44:27.498Z,1.28
2022-11-13T19:46:57.449Z,1.28
2022-11-13T19:49:26.992Z,1.28
2022-11-13T19:51:55.172Z,1.24
2022-11-13T19:54:23.337Z,1.22
2022-11-13T19:56:51.911Z,1.13
2022-11-13T19:59:20.066Z,1.14
2022-11-13T20:01:48.169Z,1.15
2022-11-13T20:04:17.872Z,1.23
2022-11-13T20:06:46.038Z,1.22
2022-11-13T20:09:14.194Z,1.28
2022-11-13T20:11:42.379Z,1.34
2022-11-13T20:14:11.842Z,1.39
2022-11-13T20:16:39.989Z,1.38
2022-11-13T20:19:08.207Z,1.33
2022-11-13T20:21:37.778Z,1.24
2022-11-13T20:24:06.199Z,1.24
2022-11-13T20:26:34.399Z,1.28
2022-11-13T20:29:02.579Z,1.32
2022-11-13T20:31:30.688Z,1.28
2022-11-13T20:33:59.508Z,1.28
2022-11-13T20:36:27.620Z,1.36
2022-11-13T20:38:58.158Z,1.32
2022-11-13T20:41:26.724Z,1.26
2022-11-13T20:43:56.442Z,1.37
2022-11-13T20:46:25.417Z,1.69
2022-11-13T20:48:53.578Z,2.06
2022-11-13T20:51:24.337Z,2.03
2022-11-13T20:53:52.980Z,2.17
2022-11-13T20:56:23.929Z,2.11
2022-11-13T20:58:52.040Z,2.24
2022-11-13T21:01:22.179Z,2.09
2022-11-13T21:03:50.720Z,2.05
2022-11-13T21:06:20.560Z,1.90
2022-11-13T21:08:48.928Z,1.72
2022-11-13T21:11:19.638Z,1.73
2022-11-13T21:13:49.360Z,1.71
2022-11-13T21:16:18.299Z,1.57
2022-11-13T21:18:46.713Z,1.50
2022-11-13T21:21:16.397Z,1.47
2022-11-13T21:23:44.482Z,1.43
2022-11-13T21:26:12.722Z,1.37
2022-11-13T21:28:41.129Z,1.36
2022-11-13T21:31:15.528Z,1.28
2022-11-13T21:33:44.658Z,1.37
2022-11-13T21:36:14.412Z,1.28
2022-11-13T21:38:43.279Z,1.30
2022-11-13T21:41:25.083Z,1.27
2022-11-13T21:43:57.039Z,1.25
2022-11-13T21:46:28.184Z,1.21
2022-11-13T21:48:57.938Z,1.27
2022-11-13T21:51:26.329Z,1.22
2022-11-13T21:53:54.396Z,1.21
2022-11-13T21:56:22.983Z,1.30
2022-11-13T21:58:51.481Z,1.31
2022-11-13T22:01:19.780Z,1.30
2022-11-13T22:03:49.783Z,1.40
2022-11-13T22:06:20.858Z,1.67
2022-11-13T22:08:56.057Z,1.56
2022-11-13T22:11:24.779Z,1.50
2022-11-13T22:13:53.111Z,1.49
2022-11-13T22:16:21.779Z,1.37
2022-11-13T22:18:54.960Z,1.29
2022-11-13T22:21:23.703Z,1.19
2022-11-13T22:23:52.041Z,1.26
2022-11-13T22:26:20.725Z,1.21
2022-11-13T22:28:50.358Z,1.14
2022-11-13T22:31:21.376Z,1.15
2022-11-13T22:33:54.700Z,1.19
2022-11-13T22:36:24.648Z,1.25
2022-11-13T22:38:53.266Z,1.46
2022-11-13T22:41:23.509Z,1.47
2022-11-13T22:43:54.221Z,1.77
2022-11-13T22:46:30.177Z,1.82
2022-11-13T22:49:01.899Z,1.78
2022-11-13T22:51:31.767Z,2.12
2022-11-13T22:54:01.079Z,2.31
2022-11-13T22:56:32.127Z,2.38
2022-11-13T22:59:01.832Z,2.43
2022-11-13T23:01:31.206Z,2.48
2022-11-13T23:04:02.422Z,2.42
2022-11-13T23:06:31.876Z,1.99
2022-11-13T23:09:00.399Z,1.83
2022-11-13T23:11:30.379Z,1.68
2022-11-13T23:14:02.182Z,1.68
2022-11-13T23:16:31.823Z,2.07
2022-11-13T23:19:02.673Z,2.10
2022-11-13T23:21:30.888Z,2.13
2022-11-13T23:23:59.399Z,1.99
2022-11-13T23:26:28.494Z,2.20
2022-11-13T23:28:57.281Z,2.12
2022-11-13T23:31:25.687Z,2.31
2022-11-13T23:33:53.909Z,2.18
2022-11-13T23:36:24.029Z,2.04
2022-11-13T23:38:52.292Z,1.95
2022-11-13T23:41:20.453Z,1.87
2022-11-13T23:46:37.223Z,1.98
2022-11-13T23:49:05.419Z,2.05
2022-11-13T23:51:35.081Z,1.99
2022-11-13T23:54:03.353Z,2.11
2022-11-13T23:56:31.598Z,2.13
2022-11-13T23:58:59.889Z,2.08
